Time;durP1;ratioP1;P1;durP2;ratioP2;P2;SDS_P1;SDS_P2;PMS_P1;PMS_P2;Temp;Humidity;BMP_temperature;BMP_pressure;BME280_temperature;BME280_humidity;BME280_pressure;Samples;Min_cycle;Max_cycle;Signal;HPM_P1;HPM_P2
2023/08/30 00:00:03;;;;;;;3.20;1.98;;;;;;;;;;5043716;28;20029;-77
2023/08/30 00:02:31;;;;;;;3.67;1.88;;;;;;;;;;5042521;28;20041;-77
2023/08/30 00:05:00;;;;;;;4.13;2.00;;;;;;;;;;5042607;28;20025;-77
2023/08/30 00:07:26;;;;;;;3.05;1.60;;;;;;;;;;5041349;28;20032;-76
2023/08/30 00:09:51;;;;;;;4.18;2.00;;;;;;;;;;5042334;28;20500;-76
2023/08/30 00:12:16;;;;;;;4.07;1.80;;;;;;;;;;5043478;28;20084;-77
2023/08/30 00:14:41;;;;;;;3.63;1.73;;;;;;;;;;5047344;28;20031;-77
2023/08/30 00:17:07;;;;;;;2.88;1.60;;;;;;;;;;5032316;28;20033;-77
2023/08/30 00:19:32;;;;;;;3.80;1.67;;;;;;;;;;5048155;28;20093;-77
2023/08/30 00:21:57;;;;;;;4.50;2.00;;;;;;;;;;5047272;28;20074;-77
2023/08/30 00:24:22;;;;;;;4.97;1.98;;;;;;;;;;5048364;28;20029;-77
2023/08/30 00:26:47;;;;;;;2.90;1.50;;;;;;;;;;5045829;28;20036;-77
2023/08/30 00:29:13;;;;;;;3.20;1.63;;;;;;;;;;5046051;28;20057;-77
2023/08/30 00:31:38;;;;;;;2.70;1.65;;;;;;;;;;5046698;28;20029;-77
2023/08/30 00:34:04;;;;;;;2.75;1.73;;;;;;;;;;5049242;28;20500;-77
2023/08/30 00:36:29;;;;;;;3.30;1.75;;;;;;;;;;5049651;28;20036;-77
2023/08/30 00:38:54;;;;;;;2.50;1.55;;;;;;;;;;5048404;28;20078;-77
2023/08/30 00:41:20;;;;;;;4.20;2.35;;;;;;;;;;5050410;28;20090;-77
2023/08/30 00:43:45;;;;;;;3.85;2.42;;;;;;;;;;5050237;28;20087;-77
2023/08/30 00:46:10;;;;;;;3.40;2.45;;;;;;;;;;5050268;28;20031;-77
2023/08/30 00:48:36;;;;;;;4.90;2.63;;;;;;;;;;5049825;28;20048;-77
2023/08/30 00:51:01;;;;;;;4.97;3.08;;;;;;;;;;5047382;28;20030;-77
2023/08/30 00:53:26;;;;;;;4.70;2.55;;;;;;;;;;5050125;28;20029;-77
2023/08/30 00:55:52;;;;;;;4.68;2.95;;;;;;;;;;5048364;28;20031;-77
2023/08/30 00:58:17;;;;;;;4.18;2.58;;;;;;;;;;5051150;28;20051;-76
2023/08/30 01:00:43;;;;;;;6.07;3.22;;;;;;;;;;5044248;28;20550;-77
2023/08/30 01:03:09;;;;;;;4.68;2.67;;;;;;;;;;5051670;28;20021;-77
2023/08/30 01:05:34;;;;;;;3.92;2.65;;;;;;;;;;5049207;28;20029;-77
2023/08/30 01:08:00;;;;;;;4.95;2.85;;;;;;;;;;5051922;28;20478;-77
2023/08/30 01:10:31;;;;;;;5.18;3.42;;;;;;;;;;5045655;28;20033;-77
2023/08/30 01:13:05;;;;;;;5.32;2.88;;;;;;;;;;5048690;28;20033;-77
2023/08/30 01:15:32;;;;;;;4.82;3.25;;;;;;;;;;5050479;28;20025;-77
2023/08/30 01:17:57;;;;;;;4.55;3.10;;;;;;;;;;5051961;28;20081;-77
2023/08/30 01:20:23;;;;;;;5.90;2.72;;;;;;;;;;5052823;28;20052;-77
2023/08/30 01:23:00;;;;;;;6.05;3.30;;;;;;;;;;5046759;28;20159;-77
2023/08/30 01:25:33;;;;;;;4.35;3.30;;;;;;;;;;5050126;28;20484;-77
2023/08/30 01:28:01;;;;;;;6.30;3.08;;;;;;;;;;5044872;28;20034;-77
2023/08/30 01:30:27;;;;;;;4.70;3.15;;;;;;;;;;5048396;28;20026;-77
2023/08/30 01:32:53;;;;;;;5.88;3.30;;;;;;;;;;5051529;28;20039;-77
2023/08/30 01:35:19;;;;;;;4.43;2.72;;;;;;;;;;5051254;28;20123;-77
2023/08/30 01:37:46;;;;;;;7.68;3.40;;;;;;;;;;5052371;28;20036;-77
2023/08/30 01:40:11;;;;;;;6.60;4.05;;;;;;;;;;5045216;28;20033;-77
2023/08/30 01:42:38;;;;;;;3.80;2.95;;;;;;;;;;5049051;28;20079;-77
2023/08/30 01:45:04;;;;;;;5.78;4.00;;;;;;;;;;5049366;28;20035;-77
2023/08/30 01:47:29;;;;;;;5.45;3.15;;;;;;;;;;5047241;28;20061;-77
2023/08/30 01:49:55;;;;;;;4.50;3.38;;;;;;;;;;5029895;28;20030;-77
2023/08/30 01:52:22;;;;;;;5.40;3.95;;;;;;;;;;5046710;28;20033;-77
2023/08/30 01:54:51;;;;;;;5.40;3.35;;;;;;;;;;5048435;28;20039;-77
2023/08/30 01:57:16;;;;;;;5.25;3.45;;;;;;;;;;5051570;28;20032;-77
2023/08/30 01:59:41;;;;;;;5.13;3.65;;;;;;;;;;5046186;28;20080;-77
2023/08/30 02:02:06;;;;;;;5.68;3.53;;;;;;;;;;5047155;28;20187;-77
2023/08/30 02:04:32;;;;;;;8.68;3.92;;;;;;;;;;5047140;28;20029;-77
2023/08/30 02:07:01;;;;;;;5.70;4.15;;;;;;;;;;5050134;28;20092;-77
2023/08/30 02:09:29;;;;;;;5.97;4.15;;;;;;;;;;5026989;28;20030;-77
2023/08/30 02:11:56;;;;;;;4.65;3.70;;;;;;;;;;5046557;28;20040;-77
2023/08/30 02:14:23;;;;;;;4.93;3.40;;;;;;;;;;5051464;28;20036;-77
2023/08/30 02:16:48;;;;;;;5.00;3.25;;;;;;;;;;5049987;28;20061;-77
2023/08/30 02:19:16;;;;;;;5.97;4.15;;;;;;;;;;5050135;28;20044;-77
2023/08/30 02:21:42;;;;;;;5.43;3.97;;;;;;;;;;5049840;28;20033;-77
2023/08/30 02:24:08;;;;;;;8.32;3.60;;;;;;;;;;5049262;28;20108;-77
2023/08/30 02:26:33;;;;;;;4.80;3.47;;;;;;;;;;5050210;28;20040;-77
2023/08/30 02:28:58;;;;;;;6.70;3.85;;;;;;;;;;5049096;28;20112;-77
2023/08/30 02:31:24;;;;;;;7.03;3.30;;;;;;;;;;5048470;28;20502;-77
2023/08/30 02:33:49;;;;;;;8.85;4.20;;;;;;;;;;5048289;28;20064;-77
2023/08/30 02:36:14;;;;;;;6.47;3.50;;;;;;;;;;5045711;28;20033;-77
2023/08/30 02:38:39;;;;;;;4.18;3.13;;;;;;;;;;5048240;28;20032;-77
2023/08/30 02:41:05;;;;;;;4.03;3.00;;;;;;;;;;5048620;28;20068;-77
2023/08/30 02:43:30;;;;;;;5.03;3.97;;;;;;;;;;5047820;28;20062;-77
2023/08/30 02:45:55;;;;;;;6.82;3.42;;;;;;;;;;5050571;28;20035;-77
2023/08/30 02:48:20;;;;;;;4.00;3.03;;;;;;;;;;5047384;28;20047;-77
2023/08/30 02:50:45;;;;;;;5.47;4.10;;;;;;;;;;5045924;28;20060;-77
2023/08/30 02:53:11;;;;;;;5.60;2.60;;;;;;;;;;5048881;28;20404;-77
2023/08/30 02:55:36;;;;;;;3.55;2.33;;;;;;;;;;5047159;28;20034;-77
2023/08/30 02:58:01;;;;;;;3.72;2.90;;;;;;;;;;5051426;28;20539;-77
2023/08/30 03:00:27;;;;;;;4.55;2.95;;;;;;;;;;5044300;28;20030;-77
2023/08/30 03:02:54;;;;;;;5.55;4.80;;;;;;;;;;5049720;28;20364;-78
2023/08/30 03:05:19;;;;;;;5.50;3.17;;;;;;;;;;5050383;28;20037;-77
2023/08/30 03:07:44;;;;;;;4.88;3.45;;;;;;;;;;5047438;28;20060;-78
2023/08/30 03:10:11;;;;;;;6.03;3.15;;;;;;;;;;5050139;28;20017;-78
2023/08/30 03:12:37;;;;;;;6.07;3.63;;;;;;;;;;5036266;28;20030;-78
2023/08/30 03:15:04;;;;;;;5.28;3.22;;;;;;;;;;5052666;28;20040;-78
2023/08/30 03:17:29;;;;;;;5.10;3.60;;;;;;;;;;5025675;28;20031;-78
2023/08/30 03:19:54;;;;;;;5.50;3.70;;;;;;;;;;5046640;28;20470;-78
2023/08/30 03:22:19;;;;;;;5.25;3.30;;;;;;;;;;5026781;28;20520;-78
2023/08/30 03:24:45;;;;;;;4.00;2.60;;;;;;;;;;5048105;28;20040;-78
2023/08/30 03:27:11;;;;;;;4.80;3.25;;;;;;;;;;5044063;28;20025;-78
2023/08/30 03:29:36;;;;;;;4.15;2.60;;;;;;;;;;5041811;28;20037;-78
2023/08/30 03:32:03;;;;;;;3.95;2.67;;;;;;;;;;5040654;28;20044;-78
2023/08/30 03:34:29;;;;;;;5.78;2.90;;;;;;;;;;5041252;28;20492;-78
2023/08/30 03:36:54;;;;;;;6.90;3.17;;;;;;;;;;5023761;28;20025;-78
2023/08/30 03:39:20;;;;;;;4.78;3.28;;;;;;;;;;5043421;28;20033;-78
2023/08/30 03:41:45;;;;;;;5.80;2.95;;;;;;;;;;5044055;28;20036;-78
2023/08/30 03:44:11;;;;;;;4.97;2.88;;;;;;;;;;5041144;28;20399;-78
2023/08/30 03:46:36;;;;;;;6.03;2.67;;;;;;;;;;5043181;28;20029;-78
2023/08/30 03:49:03;;;;;;;4.70;3.30;;;;;;;;;;5045146;28;20024;-78
2023/08/30 03:51:28;;;;;;;5.03;2.85;;;;;;;;;;5046060;28;20412;-78
2023/08/30 03:53:56;;;;;;;5.47;2.78;;;;;;;;;;5045877;28;20029;-79
2023/08/30 03:56:21;;;;;;;4.70;3.53;;;;;;;;;;5028200;28;20470;-78
2023/08/30 03:58:46;;;;;;;5.45;4.18;;;;;;;;;;5045129;28;20063;-78
2023/08/30 04:01:11;;;;;;;4.78;3.25;;;;;;;;;;5044179;28;20037;-78
2023/08/30 04:03:37;;;;;;;8.45;3.80;;;;;;;;;;5046034;28;20108;-78
2023/08/30 04:06:02;;;;;;;4.07;3.05;;;;;;;;;;5034329;28;20025;-78
2023/08/30 04:08:27;;;;;;;7.13;3.20;;;;;;;;;;5045050;28;20029;-78
2023/08/30 04:10:53;;;;;;;4.78;3.00;;;;;;;;;;5047473;28;20500;-77
2023/08/30 04:13:18;;;;;;;6.15;3.22;;;;;;;;;;5046341;28;20037;-78
2023/08/30 04:15:44;;;;;;;3.75;3.05;;;;;;;;;;5045514;28;20120;-78
2023/08/30 04:18:09;;;;;;;5.05;3.60;;;;;;;;;;5030687;28;20068;-77
2023/08/30 04:20:34;;;;;;;4.38;2.65;;;;;;;;;;5037987;28;20033;-78
2023/08/30 04:23:03;;;;;;;5.22;3.08;;;;;;;;;;5049076;28;20025;-78
2023/08/30 04:25:29;;;;;;;6.70;3.53;;;;;;;;;;5038905;28;20025;-78
2023/08/30 04:27:56;;;;;;;5.85;3.58;;;;;;;;;;5034824;28;20021;-77
2023/08/30 04:30:22;;;;;;;4.40;3.20;;;;;;;;;;5047220;28;20025;-77
2023/08/30 04:32:47;;;;;;;4.13;2.95;;;;;;;;;;5044397;28;20543;-78
2023/08/30 04:35:12;;;;;;;4.45;3.25;;;;;;;;;;5040497;28;20052;-77
2023/08/30 04:37:42;;;;;;;4.82;3.50;;;;;;;;;;5044878;28;20047;-78
2023/08/30 04:40:08;;;;;;;4.90;3.83;;;;;;;;;;5041680;28;20507;-77
2023/08/30 04:42:34;;;;;;;6.07;3.58;;;;;;;;;;5045718;28;20032;-77
2023/08/30 04:45:00;;;;;;;7.10;3.95;;;;;;;;;;5048140;28;20021;-77
2023/08/30 04:47:26;;;;;;;4.32;3.13;;;;;;;;;;5047098;28;20117;-77
2023/08/30 04:49:52;;;;;;;5.93;4.05;;;;;;;;;;5042287;28;20423;-77
2023/08/30 04:52:18;;;;;;;5.80;4.82;;;;;;;;;;5040619;28;20535;-77
2023/08/30 04:54:45;;;;;;;5.35;4.05;;;;;;;;;;5034061;28;20050;-77
2023/08/30 04:57:16;;;;;;;6.63;4.43;;;;;;;;;;5041482;28;20524;-78
2023/08/30 04:59:41;;;;;;;7.35;5.13;;;;;;;;;;5050299;28;20048;-78
2023/08/30 05:02:06;;;;;;;6.85;4.60;;;;;;;;;;5025234;28;20040;-78
2023/08/30 05:04:36;;;;;;;5.70;4.05;;;;;;;;;;5045020;28;20036;-78
2023/08/30 05:07:02;;;;;;;6.18;4.57;;;;;;;;;;5048821;28;20033;-78
2023/08/30 05:09:27;;;;;;;6.03;5.00;;;;;;;;;;5044860;28;20025;-78
2023/08/30 05:11:53;;;;;;;5.68;4.40;;;;;;;;;;5044945;28;20400;-78
2023/08/30 05:14:19;;;;;;;6.75;5.15;;;;;;;;;;5025373;28;20117;-78
2023/08/30 05:16:44;;;;;;;6.07;3.92;;;;;;;;;;5045431;28;20464;-78
2023/08/30 05:19:09;;;;;;;6.07;3.95;;;;;;;;;;5031989;28;20048;-78
2023/08/30 05:21:35;;;;;;;6.75;5.45;;;;;;;;;;5028276;28;20060;-78
2023/08/30 05:24:02;;;;;;;8.00;4.20;;;;;;;;;;5048748;28;20021;-78
2023/08/30 05:26:28;;;;;;;5.80;4.13;;;;;;;;;;5048005;28;20029;-78
2023/08/30 05:28:54;;;;;;;5.13;3.92;;;;;;;;;;5035580;28;20036;-79
2023/08/30 05:31:20;;;;;;;4.78;3.83;;;;;;;;;;5042923;28;20415;-78
2023/08/30 05:34:18;;;;;;;5.85;4.97;;;;;;;;;;5043642;28;20048;-78
2023/08/30 05:37:22;;;;;;;8.63;5.40;;;;;;;;;;5034746;28;20056;-78
2023/08/30 05:39:57;;;;;;;6.15;4.30;;;;;;;;;;5017891;28;20045;-78
2023/08/30 05:42:23;;;;;;;6.18;4.43;;;;;;;;;;5027454;28;20046;-78
2023/08/30 05:44:48;;;;;;;6.25;3.60;;;;;;;;;;5048321;28;20045;-78
2023/08/30 05:47:15;;;;;;;6.18;4.50;;;;;;;;;;5049874;28;20057;-79
2023/08/30 05:49:40;;;;;;;6.05;4.22;;;;;;;;;;5045489;28;20053;-78
2023/08/30 05:52:06;;;;;;;6.00;4.30;;;;;;;;;;5049685;28;20115;-78
2023/08/30 05:54:33;;;;;;;6.22;3.70;;;;;;;;;;5046004;28;20044;-78
2023/08/30 05:56:58;;;;;;;7.68;4.30;;;;;;;;;;5047490;28;20044;-78
2023/08/30 05:59:24;;;;;;;4.72;3.53;;;;;;;;;;5047417;28;20373;-78
2023/08/30 06:01:49;;;;;;;6.13;3.83;;;;;;;;;;5044827;28;20086;-78
2023/08/30 06:04:14;;;;;;;5.40;3.90;;;;;;;;;;5047632;28;20438;-78
2023/08/30 06:06:39;;;;;;;5.55;4.78;;;;;;;;;;5048179;28;20033;-79
2023/08/30 06:09:04;;;;;;;6.72;3.72;;;;;;;;;;5048340;28;20030;-79
2023/08/30 06:11:30;;;;;;;5.65;3.97;;;;;;;;;;5047190;28;20102;-78
2023/08/30 06:13:55;;;;;;;4.95;3.97;;;;;;;;;;5043577;28;20531;-78
2023/08/30 06:16:20;;;;;;;4.95;3.75;;;;;;;;;;5045461;28;20472;-79
2023/08/30 06:18:45;;;;;;;7.47;4.38;;;;;;;;;;5047279;28;20056;-78
2023/08/30 06:21:11;;;;;;;8.40;3.97;;;;;;;;;;5042596;28;20026;-78
2023/08/30 06:23:37;;;;;;;4.35;3.42;;;;;;;;;;5043564;28;20033;-78
2023/08/30 06:26:03;;;;;;;6.82;3.80;;;;;;;;;;5046563;28;20033;-78
2023/08/30 06:28:28;;;;;;;4.65;3.20;;;;;;;;;;5047945;28;20025;-78
2023/08/30 06:30:53;;;;;;;4.72;3.55;;;;;;;;;;5049980;28;20042;-78
2023/08/30 06:33:18;;;;;;;4.75;3.28;;;;;;;;;;5051777;28;20443;-78
2023/08/30 06:35:44;;;;;;;4.72;3.55;;;;;;;;;;5046738;28;20112;-78
2023/08/30 06:38:09;;;;;;;4.03;3.15;;;;;;;;;;5046923;28;20041;-78
2023/08/30 06:40:35;;;;;;;5.47;3.25;;;;;;;;;;5047393;28;20065;-78
2023/08/30 06:43:00;;;;;;;5.63;3.95;;;;;;;;;;5043590;28;20037;-78
2023/08/30 06:45:25;;;;;;;5.78;3.95;;;;;;;;;;5049117;28;20040;-79
2023/08/30 06:47:51;;;;;;;5.50;4.05;;;;;;;;;;5047859;28;20112;-78
2023/08/30 06:50:17;;;;;;;5.15;4.25;;;;;;;;;;5049646;28;20048;-78
2023/08/30 06:52:42;;;;;;;7.50;3.50;;;;;;;;;;5039650;28;20037;-78
2023/08/30 06:55:07;;;;;;;6.22;3.92;;;;;;;;;;5049073;28;20482;-78
2023/08/30 06:57:32;;;;;;;4.28;2.67;;;;;;;;;;5046118;28;20043;-78
2023/08/30 06:59:59;;;;;;;5.13;3.33;;;;;;;;;;5048865;28;20029;-78
2023/08/30 07:02:25;;;;;;;6.20;4.30;;;;;;;;;;5027169;28;20053;-79
2023/08/30 07:04:50;;;;;;;4.30;3.42;;;;;;;;;;5049576;28;20554;-79
2023/08/30 07:07:15;;;;;;;6.30;4.15;;;;;;;;;;5048814;28;20044;-79
2023/08/30 07:09:41;;;;;;;5.72;4.57;;;;;;;;;;5045249;28;20025;-79
2023/08/30 07:12:07;;;;;;;6.55;4.70;;;;;;;;;;5042119;28;20029;-79
2023/08/30 07:14:32;;;;;;;7.78;4.45;;;;;;;;;;5049792;28;20025;-79
2023/08/30 07:16:57;;;;;;;8.50;5.40;;;;;;;;;;5045973;28;20174;-79
2023/08/30 07:19:22;;;;;;;6.65;4.50;;;;;;;;;;5049673;28;20067;-79
2023/08/30 07:21:48;;;;;;;8.80;6.45;;;;;;;;;;5047516;28;20038;-79
2023/08/30 07:24:13;;;;;;;7.15;4.75;;;;;;;;;;5050818;28;20033;-79
2023/08/30 07:26:38;;;;;;;7.68;5.43;;;;;;;;;;5044713;28;20419;-79
2023/08/30 07:29:06;;;;;;;6.97;4.70;;;;;;;;;;5052836;28;20033;-79
2023/08/30 07:31:32;;;;;;;5.75;4.72;;;;;;;;;;5043476;28;20035;-79
2023/08/30 07:33:59;;;;;;;6.50;4.63;;;;;;;;;;5048562;28;20445;-79
2023/08/30 07:36:24;;;;;;;6.70;4.50;;;;;;;;;;5045333;28;20431;-79
2023/08/30 07:38:50;;;;;;;5.80;4.78;;;;;;;;;;5048850;28;20037;-79
2023/08/30 07:41:15;;;;;;;5.70;4.20;;;;;;;;;;5044550;28;20032;-79
2023/08/30 07:43:40;;;;;;;7.63;5.38;;;;;;;;;;5052146;28;20024;-79
2023/08/30 07:46:05;;;;;;;8.02;5.88;;;;;;;;;;5050762;28;20100;-79
2023/08/30 07:48:30;;;;;;;8.63;5.03;;;;;;;;;;5049610;28;20040;-79
2023/08/30 07:50:56;;;;;;;5.78;4.32;;;;;;;;;;5049409;28;20029;-79
2023/08/30 07:53:21;;;;;;;6.32;4.95;;;;;;;;;;5049633;28;20029;-79
2023/08/30 07:55:50;;;;;;;6.88;4.47;;;;;;;;;;5049312;28;20037;-79
2023/08/30 07:58:15;;;;;;;6.78;4.45;;;;;;;;;;5049178;28;20051;-79
2023/08/30 08:00:40;;;;;;;5.88;4.10;;;;;;;;;;5048577;28;20477;-79
2023/08/30 08:03:06;;;;;;;6.93;5.00;;;;;;;;;;5051029;28;20025;-79
2023/08/30 08:05:31;;;;;;;10.40;5.80;;;;;;;;;;5050767;28;20040;-79
2023/08/30 08:07:59;;;;;;;7.03;5.47;;;;;;;;;;5051107;28;20021;-79
2023/08/30 08:10:24;;;;;;;8.27;5.00;;;;;;;;;;5050670;28;20263;-79
2023/08/30 08:12:49;;;;;;;7.65;4.70;;;;;;;;;;5049757;28;20511;-79
2023/08/30 08:15:14;;;;;;;6.72;4.82;;;;;;;;;;5048383;28;20040;-79
2023/08/30 08:17:40;;;;;;;10.73;6.25;;;;;;;;;;5048508;28;20041;-79
2023/08/30 08:20:05;;;;;;;8.10;5.38;;;;;;;;;;5047879;28;20025;-79
2023/08/30 08:22:31;;;;;;;6.40;4.70;;;;;;;;;;5050575;28;20131;-79
2023/08/30 08:24:57;;;;;;;5.68;4.43;;;;;;;;;;5041799;28;20022;-79
2023/08/30 08:27:22;;;;;;;8.65;5.57;;;;;;;;;;5046656;28;20090;-79
2023/08/30 08:29:47;;;;;;;6.30;4.15;;;;;;;;;;5045979;28;20033;-79
2023/08/30 08:32:12;;;;;;;5.60;4.32;;;;;;;;;;5047036;28;20112;-79
2023/08/30 08:34:38;;;;;;;6.45;5.25;;;;;;;;;;5046979;28;20041;-79
2023/08/30 08:37:03;;;;;;;5.17;4.17;;;;;;;;;;5030346;28;20138;-79
2023/08/30 08:39:29;;;;;;;6.57;4.43;;;;;;;;;;5048965;28;20282;-79
2023/08/30 08:41:55;;;;;;;7.03;4.72;;;;;;;;;;5038458;28;20294;-79
2023/08/30 08:44:21;;;;;;;6.32;4.53;;;;;;;;;;5038001;28;20025;-79
2023/08/30 08:46:47;;;;;;;7.97;4.97;;;;;;;;;;5043034;28;20025;-79
2023/08/30 08:49:16;;;;;;;6.78;5.18;;;;;;;;;;5048409;28;20106;-79
2023/08/30 08:51:45;;;;;;;8.90;6.55;;;;;;;;;;5047729;28;20033;-79
2023/08/30 08:54:10;;;;;;;8.40;4.53;;;;;;;;;;5049739;28;20036;-79
2023/08/30 08:56:36;;;;;;;6.38;4.47;;;;;;;;;;5048781;28;20082;-79
2023/08/30 08:59:02;;;;;;;6.78;4.80;;;;;;;;;;5047607;28;20040;-79
2023/08/30 09:01:27;;;;;;;6.65;5.07;;;;;;;;;;5045324;28;20076;-79
2023/08/30 09:03:52;;;;;;;5.75;4.00;;;;;;;;;;5046067;28;20052;-79
2023/08/30 09:06:18;;;;;;;5.35;3.78;;;;;;;;;;5046821;28;20030;-79
2023/08/30 09:08:43;;;;;;;5.13;3.80;;;;;;;;;;5050528;28;20451;-79
2023/08/30 09:11:09;;;;;;;5.22;3.72;;;;;;;;;;5049298;28;20406;-79
2023/08/30 09:13:34;;;;;;;5.60;3.78;;;;;;;;;;5049134;28;20037;-79
2023/08/30 09:15:59;;;;;;;5.03;4.07;;;;;;;;;;5043986;28;20033;-79
2023/08/30 09:18:27;;;;;;;4.15;3.17;;;;;;;;;;5045244;28;20113;-79
2023/08/30 09:21:05;;;;;;;4.75;3.08;;;;;;;;;;5047932;28;20037;-79
2023/08/30 09:23:31;;;;;;;4.80;3.13;;;;;;;;;;5042458;28;20115;-79
2023/08/30 09:25:56;;;;;;;6.30;3.53;;;;;;;;;;5046921;28;20108;-79
2023/08/30 09:28:21;;;;;;;4.97;2.85;;;;;;;;;;5046884;28;20057;-79
2023/08/30 09:30:50;;;;;;;5.93;3.25;;;;;;;;;;5045052;28;20501;-80
2023/08/30 09:33:15;;;;;;;6.43;2.53;;;;;;;;;;5046784;28;20049;-79
2023/08/30 09:35:44;;;;;;;5.20;2.78;;;;;;;;;;5047935;28;20476;-79
2023/08/30 09:38:16;;;;;;;5.05;3.00;;;;;;;;;;5048488;28;20029;-79
2023/08/30 09:40:41;;;;;;;;;;;;;;;;;;5049677;28;20025;-79
2023/08/30 09:43:07;;;;;;;4.85;2.88;;;;;;;;;;5048295;28;20015;-79
2023/08/30 09:45:32;;;;;;;7.43;2.75;;;;;;;;;;5046445;28;20032;-79
2023/08/30 09:48:00;;;;;;;5.00;2.53;;;;;;;;;;5047604;28;20111;-79
2023/08/30 09:50:25;;;;;;;3.75;1.98;;;;;;;;;;5049367;28;20126;-79
2023/08/30 09:52:51;;;;;;;5.53;2.58;;;;;;;;;;5028756;28;20026;-79
2023/08/30 09:55:18;;;;;;;3.17;2.03;;;;;;;;;;5047505;28;20032;-79
2023/08/30 09:57:43;;;;;;;4.22;2.55;;;;;;;;;;5026642;28;20034;-77
2023/08/30 10:00:12;;;;;;;4.30;2.72;;;;;;;;;;5039105;28;20024;-79
2023/08/30 10:02:37;;;;;;;3.40;2.05;;;;;;;;;;5040911;28;20132;-79
2023/08/30 10:05:04;;;;;;;4.65;2.17;;;;;;;;;;5042814;28;20636;-79
2023/08/30 10:07:29;;;;;;;3.55;1.77;;;;;;;;;;5047132;28;20104;-79
2023/08/30 10:09:56;;;;;;;4.07;1.83;;;;;;;;;;5040814;28;20458;-79
2023/08/30 10:12:22;;;;;;;3.88;2.20;;;;;;;;;;5035738;28;20108;-78
2023/08/30 10:14:48;;;;;;;4.28;1.80;;;;;;;;;;5034723;28;20051;-78
2023/08/30 10:17:14;;;;;;;4.28;1.80;;;;;;;;;;5013518;28;20105;-79
2023/08/30 10:19:40;;;;;;;4.85;2.00;;;;;;;;;;5046401;28;20073;-78
2023/08/30 10:22:12;;;;;;;3.42;2.28;;;;;;;;;;5047357;28;20045;-79
2023/08/30 10:24:49;;;;;;;5.95;2.42;;;;;;;;;;5045740;28;20056;-79
2023/08/30 10:27:15;;;;;;;3.20;1.80;;;;;;;;;;5032390;28;20048;-79
2023/08/30 10:29:42;;;;;;;3.38;1.67;;;;;;;;;;5040078;28;20033;-78
2023/08/30 10:32:07;;;;;;;4.03;2.10;;;;;;;;;;5039075;28;20025;-79
2023/08/30 10:34:34;;;;;;;3.83;1.45;;;;;;;;;;5044382;28;20025;-80
2023/08/30 10:37:03;;;;;;;2.83;1.55;;;;;;;;;;5029194;28;20052;-79
2023/08/30 10:39:38;;;;;;;3.45;1.70;;;;;;;;;;5044783;28;20033;-80
2023/08/30 10:42:10;;;;;;;2.75;1.30;;;;;;;;;;5041498;28;20029;-78
2023/08/30 10:44:46;;;;;;;3.65;2.00;;;;;;;;;;5046995;28;20033;-78
2023/08/30 10:47:17;;;;;;;5.05;2.15;;;;;;;;;;5046948;28;20025;-78
2023/08/30 10:49:43;;;;;;;5.80;2.03;;;;;;;;;;5051979;28;20535;-78
2023/08/30 10:52:11;;;;;;;4.03;2.15;;;;;;;;;;5048266;28;20053;-78
2023/08/30 10:54:37;;;;;;;3.55;1.50;;;;;;;;;;5053059;28;20025;-78
2023/08/30 10:57:02;;;;;;;2.80;1.42;;;;;;;;;;5050257;28;20466;-78
2023/08/30 10:59:29;;;;;;;5.68;2.20;;;;;;;;;;5050162;28;20090;-79
2023/08/30 11:01:55;;;;;;;3.58;1.55;;;;;;;;;;5043228;28;20061;-79
2023/08/30 11:04:22;;;;;;;2.50;1.50;;;;;;;;;;5045398;28;20033;-79
2023/08/30 11:06:48;;;;;;;2.78;1.27;;;;;;;;;;5044967;28;20029;-79
2023/08/30 11:09:14;;;;;;;3.22;1.20;;;;;;;;;;5049639;28;20028;-79
2023/08/30 11:11:39;;;;;;;2.70;1.27;;;;;;;;;;5047895;28;20029;-79
2023/08/30 11:14:08;;;;;;;2.88;1.27;;;;;;;;;;5050342;28;20411;-79
2023/08/30 11:16:34;;;;;;;2.63;1.20;;;;;;;;;;5048628;28;20036;-79
2023/08/30 11:19:00;;;;;;;5.25;1.90;;;;;;;;;;5047937;28;20029;-79
2023/08/30 11:21:25;;;;;;;4.47;1.60;;;;;;;;;;5047440;28;20563;-79
2023/08/30 11:23:52;;;;;;;2.50;1.20;;;;;;;;;;5038937;28;20041;-79
2023/08/30 11:26:17;;;;;;;2.40;1.10;;;;;;;;;;5043141;28;20036;-79
2023/08/30 11:28:45;;;;;;;4.38;1.48;;;;;;;;;;5048025;28;20033;-79
2023/08/30 11:31:17;;;;;;;2.40;1.33;;;;;;;;;;5048693;28;20033;-79
2023/08/30 11:33:49;;;;;;;2.47;1.00;;;;;;;;;;5044340;28;20029;-79
2023/08/30 11:36:14;;;;;;;3.40;1.50;;;;;;;;;;5044165;28;20511;-79
2023/08/30 11:38:40;;;;;;;3.28;0.93;;;;;;;;;;5046785;28;20060;-79
2023/08/30 11:41:06;;;;;;;1.83;0.80;;;;;;;;;;5048211;28;20045;-81
2023/08/30 11:43:31;;;;;;;3.83;0.80;;;;;;;;;;5047742;28;20052;-81
2023/08/30 11:45:56;;;;;;;2.47;1.33;;;;;;;;;;5049610;28;20022;-81
2023/08/30 11:48:22;;;;;;;1.73;0.80;;;;;;;;;;5049394;28;20480;-80
2023/08/30 11:50:47;;;;;;;2.03;1.00;;;;;;;;;;5048505;28;20022;-80
2023/08/30 11:53:12;;;;;;;3.70;1.20;;;;;;;;;;5050950;28;20045;-80
2023/08/30 11:55:38;;;;;;;2.75;1.15;;;;;;;;;;5049266;28;20040;-81
2023/08/30 11:58:03;;;;;;;3.15;1.17;;;;;;;;;;5044010;28;20033;-81
2023/08/30 12:00:32;;;;;;;2.17;0.95;;;;;;;;;;5046502;28;20037;-81
2023/08/30 12:02:58;;;;;;;4.30;1.20;;;;;;;;;;5049260;28;20036;-80
2023/08/30 12:05:23;;;;;;;2.25;1.02;;;;;;;;;;5048329;28;20033;-80
2023/08/30 12:07:48;;;;;;;3.03;1.25;;;;;;;;;;5049386;28;20030;-81
2023/08/30 12:10:17;;;;;;;2.03;1.15;;;;;;;;;;5049849;28;20029;-81
2023/08/30 12:12:45;;;;;;;1.88;0.90;;;;;;;;;;5050963;28;20045;-81
2023/08/30 12:15:11;;;;;;;1.45;0.90;;;;;;;;;;5048413;28;20068;-80
2023/08/30 12:17:37;;;;;;;2.40;1.00;;;;;;;;;;5050296;28;20488;-81
2023/08/30 12:20:03;;;;;;;4.18;1.08;;;;;;;;;;5047515;28;20481;-80
2023/08/30 12:22:35;;;;;;;3.13;1.02;;;;;;;;;;5047548;28;20025;-80
2023/08/30 12:25:00;;;;;;;2.45;0.93;;;;;;;;;;5052205;28;20033;-80
2023/08/30 12:27:26;;;;;;;3.50;1.57;;;;;;;;;;5056565;28;20036;-81
2023/08/30 12:29:51;;;;;;;2.40;1.00;;;;;;;;;;5052628;28;20671;-81
2023/08/30 12:32:16;;;;;;;2.47;0.90;;;;;;;;;;5051162;28;20275;-81
2023/08/30 12:34:41;;;;;;;2.17;0.93;;;;;;;;;;5054048;28;20363;-81
2023/08/30 12:37:06;;;;;;;3.67;1.08;;;;;;;;;;5049084;28;20332;-81
2023/08/30 12:39:32;;;;;;;2.30;1.00;;;;;;;;;;5054383;28;20411;-81
2023/08/30 12:41:57;;;;;;;2.77;0.90;;;;;;;;;;5047097;28;21042;-78
2023/08/30 12:44:22;;;;;;;2.58;0.90;;;;;;;;;;5047069;28;20272;-78
2023/08/30 12:46:47;;;;;;;2.45;0.80;;;;;;;;;;5052087;28;20034;-78
2023/08/30 12:49:13;;;;;;;1.98;0.90;;;;;;;;;;5049013;28;20033;-78
2023/08/30 12:51:38;;;;;;;2.15;1.17;;;;;;;;;;5048145;28;20037;-78
2023/08/30 12:54:03;;;;;;;2.33;1.00;;;;;;;;;;5049882;28;20048;-78
2023/08/30 12:56:29;;;;;;;1.73;0.90;;;;;;;;;;5050700;28;20692;-77
2023/08/30 12:58:54;;;;;;;2.77;1.13;;;;;;;;;;5043972;28;20126;-78
2023/08/30 13:01:19;;;;;;;2.03;1.00;;;;;;;;;;5046451;28;20287;-78
2023/08/30 13:03:44;;;;;;;3.47;1.03;;;;;;;;;;5045291;28;20284;-78
2023/08/30 13:06:09;;;;;;;1.90;0.80;;;;;;;;;;5049713;28;20299;-78
2023/08/30 13:08:35;;;;;;;1.87;0.80;;;;;;;;;;5045861;28;20272;-78
2023/08/30 13:11:00;;;;;;;0.98;0.50;;;;;;;;;;5047640;28;20283;-78
2023/08/30 13:13:25;;;;;;;2.80;0.80;;;;;;;;;;5045973;28;20036;-77
2023/08/30 13:15:51;;;;;;;1.80;0.70;;;;;;;;;;5048400;28;20025;-77
2023/08/30 13:18:16;;;;;;;3.08;0.90;;;;;;;;;;5047247;28;20044;-77
2023/08/30 13:20:42;;;;;;;3.78;0.90;;;;;;;;;;5047013;28;20033;-78
2023/08/30 13:23:07;;;;;;;4.25;1.13;;;;;;;;;;5048575;28;20030;-78
2023/08/30 13:25:32;;;;;;;0.90;0.50;;;;;;;;;;5044150;28;20089;-77
2023/08/30 13:27:57;;;;;;;1.87;0.70;;;;;;;;;;5045505;28;20029;-77
2023/08/30 13:30:22;;;;;;;2.70;0.70;;;;;;;;;;5042538;28;20335;-77
2023/08/30 13:32:48;;;;;;;1.90;0.70;;;;;;;;;;5049315;28;20344;-77
2023/08/30 13:35:13;;;;;;;3.22;0.80;;;;;;;;;;5047381;28;20279;-77
2023/08/30 13:37:38;;;;;;;2.37;1.17;;;;;;;;;;5050350;28;20051;-77
2023/08/30 13:40:05;;;;;;;3.85;1.17;;;;;;;;;;5047125;28;20287;-78
2023/08/30 13:42:31;;;;;;;3.47;1.10;;;;;;;;;;5044296;28;20115;-78
2023/08/30 13:44:56;;;;;;;2.47;0.90;;;;;;;;;;5048706;28;20119;-77
2023/08/30 13:47:22;;;;;;;2.63;1.30;;;;;;;;;;5046544;28;20033;-77
2023/08/30 13:49:47;;;;;;;1.40;0.83;;;;;;;;;;5044992;28;20342;-78
2023/08/30 13:52:12;;;;;;;2.45;1.27;;;;;;;;;;5049080;28;20757;-78
2023/08/30 13:54:37;;;;;;;4.43;0.80;;;;;;;;;;5047512;28;20071;-78
2023/08/30 13:57:03;;;;;;;2.33;0.80;;;;;;;;;;5045973;28;20480;-77
2023/08/30 13:59:28;;;;;;;1.83;0.93;;;;;;;;;;5048241;28;20279;-78
2023/08/30 14:01:54;;;;;;;2.28;0.90;;;;;;;;;;5044246;28;20045;-77
2023/08/30 14:04:19;;;;;;;2.75;0.70;;;;;;;;;;5046582;28;20040;-77
2023/08/30 14:06:44;;;;;;;2.10;0.98;;;;;;;;;;5046947;28;20030;-77
2023/08/30 14:09:10;;;;;;;2.87;1.13;;;;;;;;;;5047776;28;20021;-77
2023/08/30 14:11:37;;;;;;;2.67;1.25;;;;;;;;;;5042520;28;20749;-77
2023/08/30 14:14:03;;;;;;;2.65;1.30;;;;;;;;;;5047594;28;20487;-77
2023/08/30 14:16:28;;;;;;;2.05;0.90;;;;;;;;;;5038402;28;20035;-77
2023/08/30 14:18:53;;;;;;;2.38;0.90;;;;;;;;;;5043699;28;20030;-77
2023/08/30 14:21:18;;;;;;;2.30;1.00;;;;;;;;;;5049353;28;20088;-78
2023/08/30 14:23:43;;;;;;;1.50;0.83;;;;;;;;;;5041639;28;20033;-77
2023/08/30 14:26:09;;;;;;;3.85;1.08;;;;;;;;;;5050062;28;20607;-77
2023/08/30 14:28:38;;;;;;;4.05;1.33;;;;;;;;;;5045466;28;20057;-78
2023/08/30 14:31:06;;;;;;;2.15;1.00;;;;;;;;;;5045348;28;20542;-77
2023/08/30 14:33:31;;;;;;;2.63;1.20;;;;;;;;;;5048419;28;20030;-77
2023/08/30 14:35:57;;;;;;;2.43;1.10;;;;;;;;;;5049549;28;20031;-77